Time;durP1;ratioP1;P1;durP2;ratioP2;P2;SDS_P1;SDS_P2;PMS_P1;PMS_P2;Temp;Humidity;BMP_temperature;BMP_pressure;BME280_temperature;BME280_humidity;BME280_pressure;Samples;Min_cycle;Max_cycle;Signal;HPM_P1;HPM_P2
2022/09/17 00:01:16;;;;;;;6.22;2.80;;;;;;;9.13;100.00;97506.16;2611433;28;20764;-85
2022/09/17 00:02:31;;;;;;;5.05;3.70;;;;;;;9.06;100.00;97502.06;2611490;28;20048;-85
2022/09/17 00:03:52;;;;;;;3.47;2.80;;;;;;;9.02;100.00;97505.72;2611341;28;20052;-86
2022/09/17 00:05:08;;;;;;;7.20;3.22;;;;;;;9.01;100.00;97504.00;2612313;28;20056;-85
2022/09/17 00:06:24;;;;;;;4.05;3.10;;;;;;;9.00;100.00;97500.53;2612649;28;20102;-85
2022/09/17 00:07:40;;;;;;;5.18;2.72;;;;;;;8.91;100.00;97508.72;2611785;28;20721;-86
2022/09/17 00:08:56;;;;;;;5.03;2.97;;;;;;;9.14;100.00;97501.78;2611239;28;20080;-87
2022/09/17 00:10:11;;;;;;;4.20;2.75;;;;;;;9.19;100.00;97499.88;2611860;28;20056;-85
2022/09/17 00:11:30;;;;;;;4.82;2.78;;;;;;;9.19;100.00;97505.91;2610059;28;20052;-84
2022/09/17 00:12:46;;;;;;;6.30;3.08;;;;;;;9.28;100.00;97503.88;2609450;28;20045;-85
2022/09/17 00:14:03;;;;;;;3.95;3.05;;;;;;;9.41;100.00;97507.72;2612331;28;20418;-85
2022/09/17 00:15:19;;;;;;;4.32;2.80;;;;;;;9.37;100.00;97502.69;2610754;28;20053;-86
2022/09/17 00:16:37;;;;;;;5.55;3.03;;;;;;;9.39;100.00;97506.09;2613045;28;20056;-84
2022/09/17 00:17:56;;;;;;;3.47;2.70;;;;;;;9.31;100.00;97498.53;2610135;28;20052;-85
2022/09/17 00:19:16;;;;;;;4.22;2.53;;;;;;;9.17;100.00;97506.91;2610007;28;20106;-85
2022/09/17 00:20:37;;;;;;;4.68;2.70;;;;;;;9.30;100.00;97499.44;2612636;28;20064;-85
2022/09/17 00:21:53;;;;;;;3.13;2.55;;;;;;;9.26;100.00;97503.09;2613085;28;20451;-85
2022/09/17 00:23:10;;;;;;;5.97;2.80;;;;;;;9.11;100.00;97501.91;2611045;28;20186;-85
2022/09/17 00:24:25;;;;;;;6.95;2.55;;;;;;;9.08;100.00;97500.28;2610871;28;20114;-86
2022/09/17 00:25:43;;;;;;;3.17;2.60;;;;;;;9.22;100.00;97497.13;2610732;28;20057;-85
2022/09/17 00:26:59;;;;;;;4.63;2.60;;;;;;;9.27;100.00;97495.19;2610027;28;20876;-88
2022/09/17 00:28:14;;;;;;;4.10;2.90;;;;;;;9.30;100.00;97500.31;2611605;28;20083;-85
2022/09/17 00:29:30;;;;;;;3.97;2.75;;;;;;;9.26;100.00;97500.47;2611398;28;20095;-85
2022/09/17 00:30:46;;;;;;;3.60;2.45;;;;;;;9.32;100.00;97502.84;2612384;28;20060;-86
2022/09/17 00:32:01;;;;;;;4.50;2.63;;;;;;;9.18;100.00;97496.38;2609971;28;20072;-85
2022/09/17 00:33:18;;;;;;;3.15;2.42;;;;;;;9.03;100.00;97499.56;2610522;28;20063;-85
2022/09/17 00:34:34;;;;;;;4.38;2.50;;;;;;;9.26;100.00;97496.09;2610312;28;20055;-86
2022/09/17 00:35:58;;;;;;;4.15;2.72;;;;;;;9.39;100.00;97495.63;2610500;28;20056;-86
2022/09/17 00:37:14;;;;;;;6.03;2.78;;;;;;;9.56;100.00;97502.81;2611689;28;20475;-85
2022/09/17 00:38:29;;;;;;;3.03;2.42;;;;;;;9.41;100.00;97502.50;2612789;28;20052;-87
2022/09/17 00:39:44;;;;;;;5.97;2.50;;;;;;;9.52;100.00;97499.47;2611709;28;20075;-86
2022/09/17 00:41:02;;;;;;;3.35;2.28;;;;;;;9.41;100.00;97505.13;2611132;28;20079;-86
2022/09/17 00:42:18;;;;;;;4.95;2.97;;;;;;;9.52;100.00;97503.88;2611578;28;20045;-86
2022/09/17 00:43:43;;;;;;;4.68;2.72;;;;;;;9.43;100.00;97505.91;2609590;28;20377;-87
2022/09/17 00:44:59;;;;;;;4.20;2.42;;;;;;;9.41;100.00;97510.34;2609924;28;20131;-89
2022/09/17 00:46:33;;;;;;;4.93;2.20;;;;;;;9.42;100.00;97519.88;2612468;28;20056;-85
2022/09/17 00:47:58;;;;;;;3.65;2.28;;;;;;;9.31;100.00;97517.69;2610974;28;20134;-91
2022/09/17 00:49:21;;;;;;;4.13;2.47;;;;;;;9.40;100.00;97516.47;2611561;28;20055;-86
2022/09/17 00:50:43;;;;;;;3.22;2.47;;;;;;;9.39;100.00;97520.00;2610763;28;20037;-87
2022/09/17 00:52:07;;;;;;;5.63;2.75;;;;;;;9.46;100.00;97518.84;2611890;28;20068;-86
2022/09/17 00:53:23;;;;;;;5.78;2.20;;;;;;;9.41;100.00;97514.69;2609630;28;20056;-88
2022/09/17 00:54:41;;;;;;;4.78;2.75;;;;;;;9.35;100.00;97515.78;2611461;28;20444;-85
2022/09/17 00:56:25;;;;;;;3.22;2.35;;;;;;;9.19;100.00;97518.97;2612693;28;20490;-86
2022/09/17 00:57:41;;;;;;;3.10;2.25;;;;;;;9.26;100.00;97519.59;2609082;28;20515;-85
2022/09/17 00:58:57;;;;;;;3.17;2.35;;;;;;;9.25;100.00;97520.50;2609746;28;20049;-85
2022/09/17 01:00:15;;;;;;;3.83;2.17;;;;;;;9.32;100.00;97519.38;2611809;28;20079;-86
2022/09/17 01:01:31;;;;;;;3.00;2.30;;;;;;;9.35;100.00;97515.78;2611302;28;20418;-87
2022/09/17 01:02:47;;;;;;;5.32;2.90;;;;;;;9.28;100.00;97523.00;2610635;28;20053;-85
2022/09/17 01:04:03;;;;;;;3.72;2.67;;;;;;;9.36;100.00;97519.25;2611614;28;20054;-85
2022/09/17 01:05:29;;;;;;;3.50;2.60;;;;;;;9.13;100.00;97523.56;2611780;28;20048;-87
2022/09/17 01:07:27;;;;;;;2.97;2.22;;;;;;;9.32;100.00;97523.75;2612669;28;20060;-86
2022/09/17 01:09:00;;;;;;;2.88;2.45;;;;;;;9.15;100.00;97524.38;2609071;28;20687;-88
2022/09/17 01:10:42;;;;;;;3.28;2.60;;;;;;;9.28;100.00;97530.00;2610335;28;20130;-86
2022/09/17 01:12:30;;;;;;;2.97;2.30;;;;;;;9.15;100.00;97530.47;2612663;28;20495;-87
2022/09/17 01:14:07;;;;;;;3.80;2.05;;;;;;;9.28;100.00;97532.63;2610676;28;20045;-85
2022/09/17 01:15:42;;;;;;;2.92;2.10;;;;;;;9.27;100.00;97536.97;2609858;28;20494;-87
2022/09/17 01:17:17;;;;;;;3.80;2.35;;;;;;;9.26;100.00;97537.06;2610452;28;20100;-87
2022/09/17 01:18:38;;;;;;;4.70;2.00;;;;;;;9.11;100.00;97536.72;2611653;28;20128;-87
2022/09/17 01:20:28;;;;;;;4.82;2.20;;;;;;;9.11;100.00;97536.72;2609831;28;20052;-87
2022/09/17 01:21:53;;;;;;;2.85;2.10;;;;;;;9.13;100.00;97540.13;2612174;28;20052;-86
2022/09/17 01:23:41;;;;;;;3.50;2.35;;;;;;;9.09;100.00;97538.53;2611838;28;20049;-88
2022/09/17 01:25:16;;;;;;;2.40;2.05;;;;;;;9.05;100.00;97531.69;2602378;28;20052;-87
2022/09/17 01:26:37;;;;;;;4.55;2.28;;;;;;;9.02;100.00;97527.47;2611656;28;20708;-87
2022/09/17 01:28:09;;;;;;;4.78;2.33;;;;;;;8.96;100.00;97529.44;2611450;28;20114;-86
2022/09/17 01:30:22;;;;;;;4.25;2.50;;;;;;;8.89;100.00;97531.41;2611769;28;20097;-86
2022/09/17 01:31:48;;;;;;;4.57;2.42;;;;;;;9.02;100.00;97524.84;2598868;28;20045;-86
2022/09/17 01:33:45;;;;;;;4.50;2.30;;;;;;;8.95;100.00;97528.56;2598360;28;20102;-87
2022/09/17 01:35:18;;;;;;;3.38;2.03;;;;;;;8.78;100.00;97529.16;2597602;28;20483;-85
2022/09/17 01:36:55;;;;;;;3.67;2.30;;;;;;;8.72;100.00;97532.84;2602222;28;20076;-85
2022/09/17 01:38:36;;;;;;;2.97;2.28;;;;;;;8.88;100.00;97529.72;2610880;28;20052;-87
2022/09/17 01:39:59;;;;;;;3.55;2.67;;;;;;;8.84;100.00;97534.19;2612335;28;20049;-85
2022/09/17 01:41:32;;;;;;;3.70;2.50;;;;;;;8.92;100.00;97536.53;2610245;28;20075;-86
2022/09/17 01:43:01;;;;;;;3.15;2.00;;;;;;;8.96;100.00;97540.72;2612576;28;20114;-87
2022/09/17 01:44:43;;;;;;;5.47;2.55;;;;;;;8.62;100.00;97537.53;2610976;28;20651;-86
2022/09/17 01:46:09;;;;;;;4.32;2.60;;;;;;;8.79;100.00;97532.66;2613161;28;20533;-85
2022/09/17 01:47:35;;;;;;;7.70;2.72;;;;;;;8.84;100.00;97535.94;2611923;28;20045;-87
2022/09/17 01:48:57;;;;;;;6.45;2.30;;;;;;;8.79;100.00;97540.47;2612779;28;20565;-88
2022/09/17 01:50:18;;;;;;;5.05;2.70;;;;;;;8.66;100.00;97533.06;2615362;28;20053;-89
2022/09/17 01:51:38;;;;;;;6.53;2.60;;;;;;;8.50;100.00;97540.56;2618487;28;20033;-88
2022/09/17 01:52:56;;;;;;;3.28;2.40;;;;;;;8.72;100.00;97534.63;2622334;28;20045;-86
2022/09/17 01:54:29;;;;;;;2.75;2.17;;;;;;;8.71;100.00;97533.75;2623032;28;20029;-88
2022/09/17 01:55:48;;;;;;;;;;;;;;;8.52;100.00;97532.69;2623943;28;20057;-89
2022/09/17 01:57:10;;;;;;;4.50;2.33;;;;;;;8.70;100.00;97533.81;2611373;28;19924;-86
2022/09/17 01:58:30;;;;;;;3.15;2.30;;;;;;;8.61;100.00;97538.44;2609729;28;20053;-86
2022/09/17 01:59:56;;;;;;;6.88;2.50;;;;;;;8.66;100.00;97540.03;2609738;28;20048;-86
2022/09/17 02:01:16;;;;;;;2.92;2.40;;;;;;;8.81;100.00;97544.75;2611078;28;20072;-88
2022/09/17 02:02:37;;;;;;;3.10;2.05;;;;;;;8.71;100.00;97543.34;2609971;28;20675;-89
2022/09/17 02:03:59;;;;;;;2.90;2.13;;;;;;;8.80;100.00;97543.03;2609187;28;20045;-87
2022/09/17 02:05:20;;;;;;;3.22;2.17;;;;;;;8.55;100.00;97546.50;2611679;28;20415;-86
2022/09/17 02:06:39;;;;;;;6.65;2.15;;;;;;;8.58;100.00;97549.00;2609406;28;20610;-87
2022/09/17 02:08:02;;;;;;;4.13;2.38;;;;;;;8.52;100.00;97550.97;2609383;28;20476;-85
2022/09/17 02:09:58;;;;;;;4.15;2.47;;;;;;;8.58;100.00;97549.00;2612338;28;20139;-87
2022/09/17 02:11:16;;;;;;;3.00;2.10;;;;;;;8.55;100.00;97551.72;2597356;28;20091;-88
2022/09/17 02:12:40;;;;;;;3.83;2.05;;;;;;;8.50;100.00;97553.59;2611287;28;20083;-86
2022/09/17 02:14:02;;;;;;;4.68;2.05;;;;;;;8.60;100.00;97552.41;2610873;28;20925;-86
2022/09/17 02:15:30;;;;;;;3.55;2.38;;;;;;;8.30;100.00;97555.13;2610131;28;20064;-86
2022/09/17 02:17:00;;;;;;;4.03;2.30;;;;;;;8.36;100.00;97558.41;2610671;28;20049;-86
2022/09/17 02:18:35;;;;;;;2.55;1.88;;;;;;;8.41;100.00;97551.31;2612389;28;20063;-89
2022/09/17 02:19:52;;;;;;;2.97;2.10;;;;;;;8.61;100.00;97554.09;2610040;28;20072;-88
2022/09/17 02:21:15;;;;;;;4.20;2.20;;;;;;;8.52;100.00;97546.59;2611660;28;20052;-86
2022/09/17 02:22:41;;;;;;;3.50;2.40;;;;;;;8.50;100.00;97543.19;2612346;28;20053;-87
2022/09/17 02:24:04;;;;;;;5.85;2.55;;;;;;;8.64;100.00;97547.06;2611765;28;20052;-87
2022/09/17 02:25:46;;;;;;;3.40;2.40;;;;;;;8.40;100.00;97549.59;2614703;28;20548;-87
2022/09/17 02:27:16;;;;;;;3.42;1.98;;;;;;;8.61;100.00;97548.88;2612595;28;20588;-90
2022/09/17 02:28:38;;;;;;;3.10;2.30;;;;;;;8.67;100.00;97552.22;2611820;28;20056;-87
2022/09/17 02:29:53;;;;;;;4.55;2.03;;;;;;;8.66;100.00;97550.47;2611799;28;20056;-86
2022/09/17 02:31:09;;;;;;;3.85;2.10;;;;;;;8.67;100.00;97553.03;2612403;28;20493;-86
2022/09/17 02:32:26;;;;;;;3.60;2.22;;;;;;;8.60;100.00;97547.19;2611382;28;20048;-86
2022/09/17 02:33:47;;;;;;;2.65;2.00;;;;;;;8.50;100.00;97543.19;2613217;28;20052;-87
2022/09/17 02:35:03;;;;;;;3.38;2.22;;;;;;;8.45;100.00;97545.94;2612565;28;20098;-85
2022/09/17 02:36:18;;;;;;;3.90;2.15;;;;;;;8.52;100.00;97543.13;2611377;28;20045;-87
2022/09/17 02:37:34;;;;;;;7.55;2.58;;;;;;;8.65;100.00;97536.59;2610483;28;20079;-87
2022/09/17 02:39:01;;;;;;;4.13;2.53;;;;;;;8.49;100.00;97538.84;2612554;28;20053;-87
2022/09/17 02:40:17;;;;;;;3.00;2.22;;;;;;;8.53;100.00;97543.09;2612144;28;20059;-86
2022/09/17 02:42:05;;;;;;;3.08;2.20;;;;;;;8.41;100.00;97540.88;2613276;28;20059;-87
2022/09/17 02:43:39;;;;;;;5.10;2.17;;;;;;;8.65;100.00;97541.81;2601808;28;20064;-86
2022/09/17 02:45:31;;;;;;;4.63;1.73;;;;;;;8.52;100.00;97538.78;2611116;28;20045;-84
2022/09/17 02:47:12;;;;;;;3.45;2.15;;;;;;;8.76;100.00;97542.28;2611239;28;20083;-86
2022/09/17 02:48:33;;;;;;;5.50;2.20;;;;;;;8.80;100.00;97531.75;2612697;28;20114;-84
2022/09/17 02:50:17;;;;;;;3.55;2.28;;;;;;;8.76;100.00;97541.44;2613233;28;20052;-85
2022/09/17 02:51:53;;;;;;;4.25;2.30;;;;;;;8.83;100.00;97529.00;2611165;28;21060;-88
2022/09/17 02:53:35;;;;;;;3.15;1.98;;;;;;;8.75;100.00;97539.72;2612473;28;20411;-86
2022/09/17 02:55:18;;;;;;;5.03;2.30;;;;;;;8.92;100.00;97538.25;2613458;28;20143;-84
2022/09/17 02:56:33;;;;;;;;;;;;;;;8.96;100.00;97534.66;2612192;28;20076;-85
2022/09/17 02:57:58;;;;;;;4.43;1.95;;;;;;;8.95;100.00;97536.41;2610682;28;19924;-87
2022/09/17 02:59:13;;;;;;;4.07;1.77;;;;;;;9.04;100.00;97535.22;2612513;28;20065;-86
2022/09/17 03:00:30;;;;;;;3.45;1.80;;;;;;;9.01;100.00;97530.97;2610553;28;20364;-85
2022/09/17 03:01:57;;;;;;;2.35;1.90;;;;;;;9.08;100.00;97530.75;2610750;28;20053;-86
2022/09/17 03:03:21;;;;;;;2.10;1.25;;;;;;;8.98;100.00;97530.22;2612369;28;20052;-85
2022/09/17 03:04:38;;;;;;;2.10;1.73;;;;;;;9.18;100.00;97527.72;2611028;28;20045;-88
2022/09/17 03:05:55;;;;;;;2.83;2.15;;;;;;;9.03;100.00;97530.91;2611996;28;20084;-88
2022/09/17 03:07:12;;;;;;;2.55;1.90;;;;;;;9.16;100.00;97531.31;2613588;28;20049;-86
2022/09/17 03:08:39;;;;;;;1.83;1.45;;;;;;;9.16;100.00;97521.72;2612353;28;20052;-88
2022/09/17 03:09:55;;;;;;;2.83;1.60;;;;;;;9.17;100.00;97526.03;2612149;28;20045;-85
2022/09/17 03:11:11;;;;;;;4.80;1.63;;;;;;;9.34;100.00;97524.53;2610860;28;20679;-89
2022/09/17 03:12:27;;;;;;;4.57;1.30;;;;;;;9.32;100.00;97516.78;2612238;28;20567;-86
2022/09/17 03:13:42;;;;;;;1.80;1.40;;;;;;;9.30;100.00;97517.72;2612817;28;20573;-86
2022/09/17 03:14:58;;;;;;;1.75;1.58;;;;;;;9.28;100.00;97525.63;2611132;28;20053;-85
2022/09/17 03:16:14;;;;;;;2.85;1.58;;;;;;;9.32;100.00;97513.28;2613855;28;20044;-86
2022/09/17 03:17:30;;;;;;;4.03;1.63;;;;;;;9.26;100.00;97511.75;2611457;28;20052;-87
2022/09/17 03:18:45;;;;;;;3.17;1.30;;;;;;;9.33;100.00;97509.78;2611337;28;20045;-88
2022/09/17 03:20:01;;;;;;;1.90;1.70;;;;;;;9.43;100.00;97512.91;2612086;28;20887;-86
2022/09/17 03:21:16;;;;;;;4.75;1.65;;;;;;;9.35;100.00;97513.19;2612989;28;20048;-88
2022/09/17 03:22:32;;;;;;;1.33;1.15;;;;;;;9.32;100.00;97508.06;2612494;28;20440;-85
2022/09/17 03:23:47;;;;;;;2.55;1.45;;;;;;;9.42;100.00;97504.22;2613426;28;20487;-86
2022/09/17 03:25:03;;;;;;;3.45;1.30;;;;;;;9.31;100.00;97502.00;2613473;28;20717;-85
2022/09/17 03:26:19;;;;;;;2.50;1.25;;;;;;;9.32;100.00;97503.72;2611004;28;20344;-87
2022/09/17 03:27:34;;;;;;;2.80;1.00;;;;;;;9.37;100.00;97494.84;2611515;28;20157;-84
2022/09/17 03:28:50;;;;;;;3.70;1.25;;;;;;;9.48;100.00;97487.44;2613627;28;20071;-88
2022/09/17 03:30:06;;;;;;;2.20;1.60;;;;;;;9.44;100.00;97493.72;2611315;28;20048;-86
2022/09/17 03:31:21;;;;;;;1.85;1.42;;;;;;;9.35;100.00;97479.22;2611042;28;20049;-85
2022/09/17 03:32:37;;;;;;;1.58;1.23;;;;;;;9.31;100.00;97481.13;2610257;28;20071;-85
2022/09/17 03:33:53;;;;;;;2.72;1.63;;;;;;;9.40;100.00;97479.91;2610232;28;20049;-86
2022/09/17 03:35:08;;;;;;;3.60;1.60;;;;;;;9.35;100.00;97487.06;2612552;28;20483;-86
2022/09/17 03:36:24;;;;;;;1.98;1.50;;;;;;;9.32;100.00;97484.56;2610521;28;20056;-86
2022/09/17 03:37:39;;;;;;;1.95;1.70;;;;;;;9.36;100.00;97483.56;2612929;28;20204;-85
2022/09/17 03:38:56;;;;;;;2.38;1.48;;;;;;;9.53;100.00;97484.66;2612984;28;20678;-85
2022/09/17 03:40:12;;;;;;;2.47;1.40;;;;;;;9.39;100.00;97487.78;2610059;28;20052;-85
2022/09/17 03:41:27;;;;;;;2.58;1.33;;;;;;;9.39;100.00;97485.19;2612464;28;20071;-88
2022/09/17 03:42:43;;;;;;;2.70;1.33;;;;;;;9.36;100.00;97490.53;2611865;28;20514;-89
2022/09/17 03:43:58;;;;;;;2.10;1.67;;;;;;;9.38;100.00;97491.31;2612235;28;20076;-84
2022/09/17 03:45:14;;;;;;;2.38;1.25;;;;;;;9.32;100.00;97492.41;2610466;28;20139;-86
2022/09/17 03:46:30;;;;;;;2.90;1.73;;;;;;;9.36;100.00;97488.78;2610544;28;20078;-85
2022/09/17 03:47:45;;;;;;;3.22;1.70;;;;;;;9.23;100.00;97495.38;2611019;28;20052;-85
2022/09/17 03:49:01;;;;;;;2.53;1.75;;;;;;;9.21;100.00;97490.22;2612862;28;20094;-85
2022/09/17 03:50:17;;;;;;;3.30;1.60;;;;;;;9.14;100.00;97489.59;2612041;28;20556;-87
2022/09/17 03:51:32;;;;;;;3.90;1.35;;;;;;;9.23;100.00;97487.53;2610539;28;20487;-87
2022/09/17 03:52:48;;;;;;;3.88;1.50;;;;;;;9.18;100.00;97482.50;2610585;28;20045;-87
2022/09/17 03:54:03;;;;;;;1.90;1.35;;;;;;;9.30;100.00;97486.38;2611773;28;20091;-87
2022/09/17 03:55:19;;;;;;;1.63;1.40;;;;;;;9.34;100.00;97487.97;2612270;28;20056;-86
2022/09/17 03:56:34;;;;;;;4.47;1.50;;;;;;;9.34;100.00;97485.34;2612700;28;20078;-85
2022/09/17 03:57:50;;;;;;;4.57;1.50;;;;;;;9.17;100.00;97480.78;2610199;28;20048;-85
2022/09/17 03:59:06;;;;;;;2.88;1.40;;;;;;;9.31;100.00;97485.47;2611695;28;20055;-83
2022/09/17 04:00:22;;;;;;;2.80;1.33;;;;;;;9.29;100.00;97480.34;2610720;28;20049;-91
2022/09/17 04:01:38;;;;;;;2.08;1.50;;;;;;;9.47;100.00;97483.97;2611239;28;20488;-86
2022/09/17 04:02:53;;;;;;;2.03;1.30;;;;;;;9.42;100.00;97479.84;2611268;28;20044;-86
2022/09/17 04:04:09;;;;;;;3.85;1.58;;;;;;;9.51;100.00;97479.47;2611726;28;20045;-89
2022/09/17 04:05:25;;;;;;;5.25;1.80;;;;;;;9.63;100.00;97474.69;2611165;28;20056;-86
2022/09/17 04:06:40;;;;;;;2.08;1.60;;;;;;;9.51;100.00;97468.19;2612418;28;20522;-85
2022/09/17 04:07:56;;;;;;;1.90;1.27;;;;;;;9.28;100.00;97469.94;2612510;28;20052;-84
2022/09/17 04:09:12;;;;;;;4.10;1.60;;;;;;;9.32;100.00;97476.72;2610508;28;20457;-83
2022/09/17 04:10:28;;;;;;;3.42;1.75;;;;;;;9.43;100.00;97466.72;2612398;28;20271;-88
2022/09/17 04:11:43;;;;;;;4.93;1.90;;;;;;;9.60;100.00;97467.81;2612664;28;20063;-84
2022/09/17 04:12:59;;;;;;;1.77;1.40;;;;;;;9.39;100.00;97472.13;2609224;28;20071;-85
2022/09/17 04:14:14;;;;;;;2.95;1.73;;;;;;;9.38;100.00;97470.41;2611797;28;20559;-87
2022/09/17 04:15:32;;;;;;;3.53;1.63;;;;;;;9.50;100.00;97466.47;2611657;28;20053;-85
2022/09/17 04:16:48;;;;;;;2.40;1.50;;;;;;;9.61;100.00;97464.28;2609871;28;20056;-85
2022/09/17 04:18:03;;;;;;;4.93;2.20;;;;;;;9.77;100.00;97463.66;2611862;28;20049;-84
2022/09/17 04:19:19;;;;;;;2.97;1.48;;;;;;;9.53;100.00;97459.38;2611200;28;20400;-85
2022/09/17 04:20:35;;;;;;;2.30;1.35;;;;;;;9.32;100.00;97455.84;2610680;28;20123;-86
2022/09/17 04:21:51;;;;;;;3.72;1.58;;;;;;;9.63;100.00;97457.22;2611906;28;20087;-85
2022/09/17 04:23:09;;;;;;;2.83;1.10;;;;;;;9.52;100.00;97451.59;2611866;28;20052;-86
2022/09/17 04:24:24;;;;;;;2.67;1.55;;;;;;;9.63;100.00;97464.22;2611030;28;20048;-85
2022/09/17 04:25:40;;;;;;;3.13;1.50;;;;;;;9.63;100.00;97459.84;2610762;28;20080;-83
2022/09/17 04:26:55;;;;;;;2.63;1.50;;;;;;;9.69;100.00;97458.75;2610986;28;20048;-84
2022/09/17 04:28:11;;;;;;;2.03;1.30;;;;;;;9.56;100.00;97466.25;2611735;28;20783;-82
2022/09/17 04:29:27;;;;;;;3.65;1.40;;;;;;;9.45;100.00;97470.13;2611605;28;20082;-84
2022/09/17 04:30:43;;;;;;;3.42;1.60;;;;;;;9.78;100.00;97465.34;2612884;28;20135;-84
2022/09/17 04:31:58;;;;;;;7.35;1.65;;;;;;;9.76;100.00;97473.28;2613382;28;20049;-89
2022/09/17 04:33:14;;;;;;;4.28;1.40;;;;;;;9.73;100.00;97466.41;2621657;28;20075;-89
2022/09/17 04:34:30;;;;;;;2.38;1.23;;;;;;;9.69;100.00;97472.69;2625297;28;20059;-86
2022/09/17 04:35:46;;;;;;;1.42;1.17;;;;;;;9.71;100.00;97468.22;2623353;28;20049;-85
2022/09/17 04:37:02;;;;;;;2.58;1.48;;;;;;;9.84;100.00;97465.13;2625181;28;20053;-87
2022/09/17 04:38:19;;;;;;;6.85;1.60;;;;;;;9.77;100.00;97466.28;2612356;28;20044;-84
2022/09/17 04:39:34;;;;;;;5.70;1.60;;;;;;;9.71;100.00;97460.41;2611456;28;20136;-86
2022/09/17 04:40:50;;;;;;;3.38;1.77;;;;;;;9.72;100.00;97469.09;2610915;28;20214;-85
2022/09/17 04:42:06;;;;;;;1.65;1.10;;;;;;;9.80;100.00;97461.78;2610936;28;20673;-85
2022/09/17 04:43:22;;;;;;;4.82;1.58;;;;;;;9.70;100.00;97452.59;2610540;28;20048;-85
2022/09/17 04:44:38;;;;;;;1.27;0.90;;;;;;;9.51;100.00;97460.34;2609415;28;20498;-84
2022/09/17 04:45:54;;;;;;;2.50;1.65;;;;;;;9.66;100.00;97461.50;2610915;28;20049;-86
2022/09/17 04:47:09;;;;;;;2.70;1.70;;;;;;;9.63;100.00;97457.22;2611512;28;20040;-82
2022/09/17 04:48:25;;;;;;;1.83;1.58;;;;;;;9.80;100.00;97455.72;2610875;28;20511;-84
2022/09/17 04:49:41;;;;;;;6.43;1.83;;;;;;;9.84;100.00;97452.06;2610578;28;20103;-84
2022/09/17 04:50:56;;;;;;;3.55;1.30;;;;;;;9.85;100.00;97456.38;2611602;28;20049;-93
2022/09/17 04:52:12;;;;;;;2.72;1.58;;;;;;;9.91;100.00;97453.50;2609975;28;20049;-87
2022/09/17 04:53:27;;;;;;;3.00;1.60;;;;;;;9.95;100.00;97452.47;2611747;28;20048;-86
2022/09/17 04:54:43;;;;;;;3.40;1.50;;;;;;;9.81;100.00;97457.41;2610799;28;20052;-86
2022/09/17 04:55:58;;;;;;;2.78;1.80;;;;;;;9.89;100.00;97463.16;2609810;28;20409;-86
2022/09/17 04:57:14;;;;;;;2.40;1.63;;;;;;;9.65;100.00;97460.66;2613021;28;20053;-85
2022/09/17 04:58:30;;;;;;;5.40;1.70;;;;;;;9.67;100.00;97457.97;2608817;28;20049;-85
2022/09/17 04:59:45;;;;;;;4.47;1.58;;;;;;;9.77;100.00;97461.03;2611667;28;20076;-85
2022/09/17 05:01:01;;;;;;;4.35;1.80;;;;;;;9.79;100.00;97461.88;2611461;28;20110;-84
2022/09/17 05:02:16;;;;;;;5.70;1.80;;;;;;;9.82;100.00;97456.50;2610670;28;20084;-86
2022/09/17 05:03:32;;;;;;;2.90;1.77;;;;;;;9.75;100.00;97464.56;2610683;28;21048;-85
2022/09/17 05:04:49;;;;;;;4.28;1.70;;;;;;;9.84;100.00;97457.28;2610763;28;20083;-87
2022/09/17 05:06:05;;;;;;;3.67;1.65;;;;;;;9.85;100.00;97461.59;2610653;28;20105;-86
2022/09/17 05:07:20;;;;;;;3.67;1.42;;;;;;;9.91;100.00;97457.88;2611018;28;20040;-85
2022/09/17 05:08:36;;;;;;;5.07;1.60;;;;;;;10.00;100.00;97463.56;2610151;28;20049;-85
2022/09/17 05:09:52;;;;;;;2.95;1.50;;;;;;;9.82;100.00;97459.13;2609832;28;20492;-86
2022/09/17 05:11:08;;;;;;;2.33;1.70;;;;;;;9.96;100.00;97462.00;2611479;28;20495;-86
2022/09/17 05:12:23;;;;;;;3.45;1.70;;;;;;;10.11;100.00;97459.66;2611666;28;20353;-86
2022/09/17 05:13:39;;;;;;;4.10;1.70;;;;;;;10.01;100.00;97462.66;2611830;28;20313;-87
2022/09/17 05:14:54;;;;;;;3.13;1.75;;;;;;;9.85;100.00;97459.00;2611995;28;20064;-86
2022/09/17 05:16:10;;;;;;;2.30;1.70;;;;;;;9.91;100.00;97455.28;2609044;28;20156;-86
2022/09/17 05:17:26;;;;;;;2.78;1.48;;;;;;;9.85;100.00;97454.63;2610169;28;20045;-85
2022/09/17 05:18:41;;;;;;;2.58;1.55;;;;;;;9.85;100.00;97452.00;2609656;28;20060;-85
2022/09/17 05:19:57;;;;;;;2.90;1.80;;;;;;;10.10;100.00;97458.81;2609464;28;20099;-86
2022/09/17 05:21:13;;;;;;;3.03;1.70;;;;;;;9.84;100.00;97457.28;2612405;28;20064;-87
2022/09/17 05:22:28;;;;;;;3.63;1.67;;;;;;;9.99;100.00;97453.19;2610687;28;20053;-86
2022/09/17 05:23:44;;;;;;;1.55;1.42;;;;;;;10.03;100.00;97455.59;2611281;28;20506;-86
2022/09/17 05:24:59;;;;;;;2.92;1.65;;;;;;;9.83;100.00;97456.41;2609868;28;20041;-85
2022/09/17 05:26:16;;;;;;;4.88;1.52;;;;;;;10.03;100.00;97452.16;2610350;28;20057;-84
2022/09/17 05:27:31;;;;;;;2.75;1.65;;;;;;;10.01;100.00;97457.44;2611229;28;20088;-83
2022/09/17 05:28:47;;;;;;;3.65;1.70;;;;;;;9.90;100.00;97459.63;2611821;28;20057;-84
2022/09/17 05:30:03;;;;;;;3.10;1.50;;;;;;;9.95;100.00;97465.53;2612120;28;20070;-84
2022/09/17 05:31:19;;;;;;;3.05;1.50;;;;;;;9.95;100.00;97457.69;2610088;28;20113;-85
2022/09/17 05:32:35;;;;;;;3.72;1.77;;;;;;;9.96;100.00;97450.69;2611099;28;20052;-83
2022/09/17 05:33:51;;;;;;;3.40;1.52;;;;;;;10.04;100.00;97453.84;2611985;28;20048;-84
2022/09/17 05:35:07;;;;;;;4.97;1.73;;;;;;;10.03;100.00;97454.75;2613133;28;20135;-86
2022/09/17 05:36:23;;;;;;;2.88;1.50;;;;;;;10.01;100.00;97460.03;2610810;28;20545;-86
2022/09/17 05:37:39;;;;;;;3.75;1.70;;;;;;;10.10;100.00;97456.19;2609956;28;20045;-85
2022/09/17 05:38:55;;;;;;;4.25;1.60;;;;;;;10.11;100.00;97457.06;2611785;28;20056;-85
2022/09/17 05:40:10;;;;;;;5.72;1.73;;;;;;;10.20;100.00;97459.28;2612319;28;20048;-87
2022/09/17 05:41:26;;;;;;;3.38;1.75;;;;;;;9.98;100.00;97451.47;2609588;28;20514;-85
2022/09/17 05:42:41;;;;;;;1.90;1.60;;;;;;;10.15;100.00;97458.63;2609318;28;20056;-84
2022/09/17 05:43:57;;;;;;;3.50;1.58;;;;;;;10.17;100.00;97454.16;2610942;28;20049;-84
2022/09/17 05:45:12;;;;;;;2.95;1.52;;;;;;;10.05;100.00;97458.16;2609271;28;20518;-86
2022/09/17 05:46:28;;;;;;;1.73;1.60;;;;;;;10.07;100.00;97448.47;2611757;28;20052;-84
2022/09/17 05:47:44;;;;;;;3.30;1.60;;;;;;;10.12;100.00;97445.69;2609861;28;20048;-86
2022/09/17 05:48:59;;;;;;;4.00;1.70;;;;;;;10.14;100.00;97441.22;2610745;28;20458;-84
2022/09/17 05:50:15;;;;;;;3.13;1.70;;;;;;;10.21;100.00;97442.69;2609479;28;20056;-84
2022/09/17 05:51:31;;;;;;;3.35;1.73;;;;;;;10.36;100.00;97443.78;2611394;28;20492;-85
2022/09/17 05:52:46;;;;;;;2.75;1.50;;;;;;;10.45;100.00;97447.78;2609358;28;20045;-84
2022/09/17 05:54:02;;;;;;;4.72;1.63;;;;;;;10.32;100.00;97442.22;2610291;28;20045;-84
2022/09/17 05:55:18;;;;;;;2.15;1.80;;;;;;;10.32;100.00;97448.28;2609277;28;20049;-85
2022/09/17 05:56:34;;;;;;;3.17;1.90;;;;;;;10.27;100.00;97454.66;2614686;28;20092;-87
2022/09/17 05:57:50;;;;;;;4.25;1.80;;;;;;;10.33;100.00;97459.63;2613766;28;20049;-84
2022/09/17 05:59:06;;;;;;;5.95;2.20;;;;;;;10.32;100.00;97452.69;2611484;28;20052;-87
2022/09/17 06:00:22;;;;;;;3.22;1.60;;;;;;;10.40;100.00;97457.56;2613957;28;20083;-86
2022/09/17 06:01:37;;;;;;;4.22;1.80;;;;;;;10.31;100.00;97464.06;2611477;28;20044;-85
2022/09/17 06:02:59;;;;;;;4.57;2.00;;;;;;;10.32;100.00;97466.59;2611850;28;20041;-84
2022/09/17 06:04:16;;;;;;;2.70;1.77;;;;;;;10.21;100.00;97463.59;2613057;28;20746;-85
2022/09/17 06:05:32;;;;;;;2.03;1.45;;;;;;;10.17;100.00;97469.88;2613159;28;20060;-89
2022/09/17 06:06:47;;;;;;;3.42;1.92;;;;;;;10.28;100.00;97472.06;2611863;28;20068;-85
2022/09/17 06:08:04;;;;;;;2.17;1.50;;;;;;;10.29;100.00;97473.75;2612830;28;20052;-85
2022/09/17 06:09:20;;;;;;;3.88;1.75;;;;;;;10.18;100.00;97482.88;2606808;28;20231;-85
2022/09/17 06:10:37;;;;;;;2.78;1.83;;;;;;;10.09;100.00;97475.41;2611512;28;20159;-89
2022/09/17 06:11:53;;;;;;;3.63;1.77;;;;;;;10.19;100.00;97478.50;2614007;28;20102;-84
2022/09/17 06:13:08;;;;;;;2.80;1.67;;;;;;;10.27;100.00;97486.03;2611505;28;20099;-84
2022/09/17 06:14:24;;;;;;;2.70;1.38;;;;;;;10.27;100.00;97481.66;2613959;28;20049;-86
2022/09/17 06:15:39;;;;;;;4.72;1.73;;;;;;;10.22;100.00;97473.16;2612276;28;20083;-86
2022/09/17 06:16:55;;;;;;;2.35;1.63;;;;;;;10.33;100.00;97470.06;2612236;28;20131;-88